createdAt,value
2022-12-07T01:05:38.240Z,87.24
2022-12-07T07:39:14.751Z,88.52
2022-12-07T07:41:41.209Z,88.67
2022-12-07T07:44:13.340Z,88.82
2022-12-07T07:46:40.122Z,88.88
2022-12-07T07:49:06.594Z,88.81
2022-12-07T07:51:33.122Z,88.68
2022-12-07T07:53:59.581Z,88.75
2022-12-07T07:56:26.041Z,88.31
2022-12-07T07:58:53.430Z,88.32
2022-12-07T08:01:21.002Z,88.12
2022-12-07T08:03:48.054Z,88.14
2022-12-07T08:06:14.533Z,88.05
2022-12-07T08:08:41.055Z,88.17
2022-12-07T08:11:09.045Z,88.11
2022-12-07T08:13:36.157Z,88.22
2022-12-07T08:16:07.712Z,88.35
2022-12-07T08:18:37.866Z,88.32
2022-12-07T08:21:05.044Z,88.14
2022-12-07T08:23:39.180Z,88.02
2022-12-07T08:26:11.383Z,88.23
2022-12-07T08:28:37.863Z,88.30
2022-12-07T08:31:09.673Z,88.42
2022-12-07T08:33:36.602Z,88.26
2022-12-07T08:36:08.654Z,88.29
2022-12-07T08:38:36.543Z,88.17
2022-12-07T08:41:03.025Z,88.05
2022-12-07T08:43:29.692Z,87.95
2022-12-07T08:46:10.675Z,87.94
2022-12-07T08:48:49.112Z,87.64
2022-12-07T08:51:15.657Z,87.48
2022-12-07T08:53:42.243Z,87.37
2022-12-07T08:56:08.662Z,87.45
2022-12-07T08:58:35.553Z,87.45
2022-12-07T09:01:02.005Z,87.37
2022-12-07T09:03:28.565Z,87.34
2022-12-07T09:05:55.396Z,87.36
2022-12-07T09:08:23.975Z,87.24
2022-12-07T09:10:50.436Z,87.33
2022-12-07T09:13:16.909Z,87.34
2022-12-07T09:15:43.368Z,87.33
2022-12-07T09:18:09.842Z,87.15
2022-12-07T09:20:36.298Z,87.19
2022-12-07T09:23:02.779Z,87.24
2022-12-07T09:25:29.302Z,86.90
2022-12-07T09:27:59.277Z,86.96
2022-12-07T09:30:27.249Z,86.71
2022-12-07T09:32:54.859Z,86.89
2022-12-07T09:35:21.604Z,86.67
2022-12-07T09:37:48.077Z,86.49
2022-12-07T09:40:15.058Z,86.58
2022-12-07T09:42:45.375Z,86.36
2022-12-07T09:45:26.224Z,86.58
2022-12-07T09:47:52.756Z,86.53
2022-12-07T09:50:25.824Z,86.52
2022-12-07T09:52:53.019Z,86.36
2022-12-07T09:55:24.181Z,86.13
2022-12-07T09:57:52.459Z,86.03
2022-12-07T10:00:22.350Z,86.04
2022-12-07T10:02:53.697Z,85.82
2022-12-07T10:05:29.737Z,85.99
2022-12-07T10:07:56.182Z,85.60
2022-12-07T10:10:39.554Z,85.39
2022-12-07T10:13:14.319Z,85.08
2022-12-07T10:15:45.261Z,85.20
2022-12-07T10:18:29.812Z,85.18
2022-12-07T10:21:17.086Z,85.18
2022-12-07T10:24:01.278Z,85.20
2022-12-07T10:26:29.586Z,85.70
2022-12-07T10:28:57.395Z,84.90
2022-12-07T10:31:24.490Z,85.03
2022-12-07T10:33:55.813Z,85.23
2022-12-07T10:36:26.579Z,85.13
2022-12-07T10:39:00.222Z,85.08
2022-12-07T10:41:26.754Z,84.99
2022-12-07T10:43:56.177Z,84.92
2022-12-07T10:46:52.109Z,84.73
2022-12-07T10:49:30.361Z,85.13
2022-12-07T10:52:23.093Z,84.87
2022-12-07T10:54:52.456Z,84.58
2022-12-07T10:57:22.372Z,85.03
2022-12-07T11:00:02.263Z,84.87
2022-12-07T11:02:42.869Z,85.09
2022-12-07T11:05:18.620Z,84.89
2022-12-07T11:08:15.354Z,84.56
2022-12-07T11:11:04.439Z,84.47
2022-12-07T11:13:37.413Z,84.30
2022-12-07T11:16:45.799Z,84.26
2022-12-07T11:19:30.786Z,83.92
2022-12-07T11:21:59.701Z,84.06
2022-12-07T11:24:47.654Z,84.00
2022-12-07T11:27:37.517Z,83.94
2022-12-07T11:30:12.406Z,83.88
2022-12-07T11:32:58.966Z,83.82
2022-12-07T11:35:48.284Z,83.81
2022-12-07T11:38:20.938Z,83.50
2022-12-07T11:40:52.654Z,83.45
2022-12-07T11:43:23.666Z,83.61
2022-12-07T11:45:57.632Z,83.54
2022-12-07T11:48:31.994Z,83.32
2022-12-07T11:50:59.828Z,83.17
2022-12-07T11:53:30.646Z,83.07
2022-12-07T11:56:00.825Z,82.98
2022-12-07T11:58:51.383Z,83.05
2022-12-07T12:01:34.581Z,82.92
2022-12-07T12:04:12.606Z,82.65
2022-12-07T12:06:41.152Z,82.64
2022-12-07T12:15:30.845Z,82.75
2022-12-07T12:18:07.464Z,82.71
2022-12-07T12:20:42.005Z,82.77
2022-12-07T12:23:26.225Z,82.65
2022-12-07T12:25:58.232Z,82.51
2022-12-07T12:28:32.280Z,82.58
2022-12-07T12:31:18.361Z,82.42
2022-12-07T12:33:59.054Z,82.44
2022-12-07T12:36:26.048Z,82.38
2022-12-07T12:38:52.421Z,82.51
2022-12-07T12:41:38.344Z,82.67
2022-12-07T12:44:30.259Z,82.39
2022-12-07T12:47:55.035Z,82.53
2022-12-07T12:50:26.763Z,82.47
2022-12-07T12:52:59.949Z,82.10
2022-12-07T12:56:17.057Z,82.00
2022-12-07T12:58:46.112Z,81.66
2022-12-07T13:01:40.695Z,81.31
2022-12-07T13:04:30.132Z,81.02
2022-12-07T13:06:56.575Z,80.86
2022-12-07T13:09:26.050Z,81.32
2022-12-07T13:11:59.286Z,81.24
2022-12-07T13:14:54.796Z,81.08
2022-12-07T13:17:33.487Z,81.02
2022-12-07T13:20:02.541Z,80.57
2022-12-07T13:22:31.959Z,80.79
2022-12-07T13:24:58.720Z,80.35
2022-12-07T13:27:26.691Z,80.27
2022-12-07T13:29:53.778Z,80.29
2022-12-07T13:32:26.054Z,80.10
2022-12-07T13:34:52.478Z,79.92
2022-12-07T13:37:18.797Z,79.87
2022-12-07T13:39:49.654Z,79.78
2022-12-07T13:42:36.460Z,79.76
2022-12-07T13:45:23.041Z,79.56
2022-12-07T13:47:54.445Z,79.71
2022-12-07T13:50:29.425Z,79.17
2022-12-07T13:52:57.103Z,79.56
2022-12-07T13:55:23.755Z,79.65
2022-12-07T13:57:52.700Z,79.78
2022-12-07T14:00:25.317Z,79.85
2022-12-07T14:03:25.297Z,79.61
2022-12-07T14:06:06.262Z,79.78
2022-12-07T14:08:32.714Z,79.77
2022-12-07T14:11:00.133Z,79.49
2022-12-07T14:13:41.920Z,79.51
2022-12-07T14:16:46.937Z,79.45
2022-12-07T14:19:47.821Z,79.07
2022-12-07T14:22:24.850Z,79.39
2022-12-07T14:24:52.162Z,79.01
2022-12-07T14:27:20.856Z,79.47
2022-12-07T14:29:48.080Z,79.74
2022-12-07T14:32:20.993Z,79.60
2022-12-07T14:34:55.573Z,79.92
2022-12-07T14:37:21.965Z,79.94
2022-12-07T14:39:48.404Z,79.85
2022-12-07T14:42:14.881Z,79.54
2022-12-07T14:44:41.300Z,79.69
2022-12-07T14:50:01.730Z,79.78
2022-12-07T14:55:29.351Z,79.53
2022-12-07T14:57:56.135Z,79.14
2022-12-07T15:00:24.713Z,79.22
2022-12-07T15:02:51.867Z,79.00
2022-12-07T15:05:19.043Z,79.00
2022-12-07T15:07:46.538Z,78.98
2022-12-07T15:10:24.219Z,78.90
2022-12-07T15:12:51.536Z,78.78
2022-12-07T15:15:18.341Z,78.52
2022-12-07T15:17:44.748Z,78.38
2022-12-07T15:20:14.432Z,78.09
2022-12-07T15:22:40.989Z,77.73
2022-12-07T15:25:08.252Z,77.92
2022-12-07T15:27:34.764Z,78.12
2022-12-07T15:30:02.307Z,78.09
2022-12-07T15:32:28.763Z,78.26
2022-12-07T15:34:55.313Z,78.46
2022-12-07T15:37:21.693Z,78.43
2022-12-07T15:39:48.180Z,78.39
2022-12-07T15:42:14.581Z,78.61
2022-12-07T15:44:59.635Z,78.67
2022-12-07T15:47:26.138Z,78.37
2022-12-07T15:49:52.583Z,78.72
2022-12-07T15:52:20.044Z,78.62
2022-12-07T15:54:48.236Z,78.80
2022-12-07T15:57:14.758Z,78.71
2022-12-07T15:59:41.142Z,78.67
2022-12-07T16:02:09.748Z,78.70
2022-12-07T16:04:36.591Z,78.60
2022-12-07T16:07:03.031Z,78.90
2022-12-07T16:09:29.581Z,78.82
2022-12-07T16:11:56.462Z,78.49
2022-12-07T16:14:22.932Z,78.08
2022-12-07T16:16:49.489Z,78.46
2022-12-07T16:19:16.033Z,78.09
2022-12-07T16:21:43.208Z,77.90
2022-12-07T16:24:10.990Z,77.74
2022-12-07T16:26:37.562Z,77.81
2022-12-07T16:29:04.238Z,77.75
2022-12-07T16:31:30.913Z,77.80
2022-12-07T16:33:58.632Z,77.72
2022-12-07T16:36:55.046Z,77.27
2022-12-07T16:39:12.834Z,77.22
2022-12-07T16:41:39.256Z,77.17
2022-12-07T16:44:07.314Z,77.16
2022-12-07T16:46:34.861Z,77.24
2022-12-07T16:49:01.579Z,77.09
2022-12-07T16:51:28.176Z,77.24
2022-12-07T16:53:54.676Z,77.29
2022-12-07T16:56:21.352Z,77.04
2022-12-07T16:58:49.362Z,77.09
2022-12-07T17:01:18.810Z,77.40
2022-12-07T17:03:45.799Z,77.53
2022-12-07T17:06:23.357Z,77.74
2022-12-07T17:08:51.174Z,77.73
2022-12-07T17:11:22.833Z,77.79
2022-12-07T17:14:09.151Z,78.05
2022-12-07T17:16:36.121Z,78.51
2022-12-07T17:19:07.463Z,78.55
2022-12-07T17:21:33.944Z,78.91
2022-12-07T17:24:00.801Z,79.13
2022-12-07T17:26:31.982Z,79.11
2022-12-07T17:29:01.455Z,78.91
2022-12-07T17:31:27.960Z,78.61
2022-12-07T17:33:54.414Z,78.56
2022-12-07T17:36:26.565Z,78.65
2022-12-07T17:38:53.501Z,78.55
2022-12-07T17:41:47.247Z,78.66
2022-12-07T17:44:16.326Z,78.55
2022-12-07T17:46:43.938Z,78.58
2022-12-07T17:49:10.370Z,78.52
2022-12-07T17:51:55.958Z,78.85
2022-12-07T17:54:22.525Z,78.88
2022-12-07T17:56:49.102Z,78.92
2022-12-07T17:59:16.035Z,79.08
2022-12-07T18:01:42.843Z,79.10
2022-12-07T18:04:09.398Z,79.18
2022-12-07T18:06:36.461Z,79.11
2022-12-07T18:09:03.988Z,79.04
2022-12-07T18:11:30.401Z,79.11
2022-12-07T18:13:56.781Z,79.38
2022-12-07T18:16:25.729Z,79.28
2022-12-07T18:18:55.162Z,79.27
2022-12-07T18:21:27.464Z,79.49
2022-12-07T18:23:56.089Z,79.56
2022-12-07T18:26:24.054Z,79.55
2022-12-07T18:28:50.681Z,79.54
2022-12-07T18:31:17.824Z,79.65
2022-12-07T18:33:45.063Z,79.79
2022-12-07T18:36:12.181Z,79.58
2022-12-07T18:38:39.396Z,79.55
2022-12-07T18:41:12.630Z,79.61
2022-12-07T18:43:39.111Z,79.70
2022-12-07T18:46:21.332Z,79.06
2022-12-07T18:48:50.312Z,79.07
2022-12-07T18:51:18.083Z,78.94
2022-12-07T18:53:44.871Z,78.95
2022-12-07T18:56:29.290Z,79.01
2022-12-07T18:59:19.799Z,79.02
2022-12-07T19:01:49.551Z,78.99
2022-12-07T19:04:16.875Z,79.24
2022-12-07T19:06:44.853Z,79.26
2022-12-07T19:09:12.803Z,79.27
2022-12-07T19:11:51.939Z,79.39
2022-12-07T19:14:47.788Z,79.73
2022-12-07T19:17:14.597Z,79.63
2022-12-07T19:19:45.745Z,79.87
2022-12-07T19:22:17.222Z,79.79
2022-12-07T19:24:46.546Z,79.92
2022-12-07T19:27:14.239Z,79.99
2022-12-07T19:29:41.238Z,80.18
2022-12-07T19:32:11.339Z,80.09
2022-12-07T19:34:39.283Z,80.43
2022-12-07T19:37:06.340Z,80.66
2022-12-07T19:39:32.861Z,80.76
2022-12-07T19:41:59.517Z,80.81
2022-12-07T19:44:27.804Z,81.05
2022-12-07T19:47:02.542Z,81.00
2022-12-07T19:49:32.614Z,80.77
2022-12-07T19:52:00.792Z,81.39
2022-12-07T19:54:29.509Z,81.12
2022-12-07T19:56:56.569Z,80.99
2022-12-07T19:59:25.697Z,81.14
2022-12-07T20:01:52.580Z,80.99
2022-12-07T20:04:21.608Z,80.93
2022-12-07T20:06:49.901Z,81.20
2022-12-07T20:09:16.859Z,80.98
2022-12-07T20:12:02.109Z,81.01
2022-12-07T20:14:28.502Z,80.92
2022-12-07T20:16:54.976Z,80.78
2022-12-07T20:19:21.434Z,80.85
2022-12-07T20:21:49.142Z,80.78
2022-12-07T20:24:19.737Z,80.87
2022-12-07T20:26:48.719Z,80.73
2022-12-07T20:29:18.380Z,80.78
2022-12-07T20:31:47.025Z,80.62
2022-12-07T20:34:13.540Z,80.90
2022-12-07T20:36:40.368Z,80.77
2022-12-07T20:39:07.690Z,80.77
2022-12-07T20:41:53.172Z,80.81
2022-12-07T20:44:19.700Z,80.72
2022-12-07T20:46:46.496Z,80.96
2022-12-07T20:49:15.229Z,80.98
2022-12-07T20:51:41.644Z,80.84
2022-12-07T20:54:08.278Z,81.13
2022-12-07T20:56:36.075Z,81.08
2022-12-07T20:59:04.678Z,81.16
2022-12-07T21:01:31.581Z,81.29
2022-12-07T21:03:59.605Z,81.08
2022-12-07T21:06:26.693Z,81.15
2022-12-07T21:08:55.845Z,81.28
2022-12-07T21:11:22.958Z,81.09
2022-12-07T21:13:49.970Z,81.23
2022-12-07T21:16:19.414Z,81.23
2022-12-07T21:18:47.863Z,81.26
2022-12-07T21:21:16.826Z,81.25
2022-12-07T21:23:43.677Z,80.99
2022-12-07T21:26:11.735Z,81.27
2022-12-07T21:28:38.162Z,81.36
2022-12-07T21:31:12.947Z,81.34
2022-12-07T21:33:43.795Z,81.41
2022-12-07T21:36:15.830Z,81.28
2022-12-07T21:38:42.339Z,81.49
2022-12-07T21:41:13.975Z,81.64
2022-12-07T21:43:41.040Z,81.65
2022-12-07T21:46:07.508Z,81.70
2022-12-07T21:48:33.997Z,81.78
2022-12-07T21:51:11.853Z,81.88
2022-12-07T21:53:39.599Z,81.76
2022-12-07T21:56:14.806Z,81.78
2022-12-07T21:58:41.263Z,81.79
2022-12-07T22:01:07.660Z,81.65
2022-12-07T22:03:34.038Z,81.77
2022-12-07T22:06:01.422Z,81.75
2022-12-07T22:08:28.281Z,81.70
2022-12-07T22:10:54.793Z,81.84
2022-12-07T22:13:21.253Z,81.85
2022-12-07T22:15:47.764Z,81.92
2022-12-07T22:18:14.435Z,81.83
2022-12-07T22:20:40.886Z,81.95
2022-12-07T22:23:07.563Z,81.73
2022-12-07T22:25:33.957Z,81.90
2022-12-07T22:28:00.421Z,81.85
2022-12-07T22:30:28.406Z,82.02
2022-12-07T22:32:54.830Z,82.07
2022-12-07T22:35:21.298Z,82.01
2022-12-07T22:37:47.691Z,82.16
2022-12-07T22:40:14.662Z,81.93
2022-12-07T22:42:41.392Z,82.02
2022-12-07T22:45:08.658Z,82.05
2022-12-07T22:47:35.093Z,81.82
2022-12-07T22:50:01.571Z,82.03
2022-12-07T22:52:28.180Z,81.90
2022-12-07T22:54:54.621Z,82.24
2022-12-07T22:57:21.027Z,81.81
